Time;durP1;ratioP1;P1;durP2;ratioP2;P2;SDS_P1;SDS_P2;PMS_P1;PMS_P2;Temp;Humidity;BMP_temperature;BMP_pressure;BME280_temperature;BME280_humidity;BME280_pressure;Samples;Min_cycle;Max_cycle;Signal;HPM_P1;HPM_P2
2022/10/12 00:01:58;;;;;;;10.68;5.28;;;10.30;99.90;;;;;;5020908;28;25081;-70
2022/10/12 00:04:24;;;;;;;12.38;5.45;;;10.30;99.90;;;;;;5018970;28;25179;-71
2022/10/12 00:06:49;;;;;;;14.02;5.53;;;10.40;99.90;;;;;;5024775;28;25163;-70
2022/10/12 00:09:15;;;;;;;12.35;5.55;;;10.40;99.90;;;;;;5018918;28;25493;-72
2022/10/12 00:11:40;;;;;;;20.70;5.68;;;10.40;99.90;;;;;;5025597;28;25102;-72
2022/10/12 00:14:06;;;;;;;16.17;5.47;;;10.40;99.90;;;;;;5024341;28;25121;-71
2022/10/12 00:16:33;;;;;;;12.10;5.70;;;10.30;99.90;;;;;;5026268;28;25093;-70
2022/10/12 00:18:59;;;;;;;19.17;5.03;;;10.20;99.90;;;;;;5032692;28;25066;-70
2022/10/12 00:21:27;;;;;;;10.88;4.82;;;10.10;99.90;;;;;;5029455;28;25047;-71
2022/10/12 00:23:59;;;;;;;12.18;5.47;;;10.20;99.90;;;;;;5007493;28;25144;-70
2022/10/12 00:26:26;;;;;;;10.80;5.10;;;10.10;99.90;;;;;;5024652;28;25055;-70
2022/10/12 00:28:57;;;;;;;14.95;5.13;;;10.20;99.90;;;;;;5007228;28;25060;-70
2022/10/12 00:31:23;;;;;;;14.90;5.75;;;10.30;99.90;;;;;;5024059;28;25141;-71
2022/10/12 00:33:49;;;;;;;16.80;6.03;;;10.30;99.90;;;;;;5023057;28;25132;-71
2022/10/12 00:36:18;;;;;;;15.25;5.22;;;10.20;99.90;;;;;;5024806;28;25077;-70
2022/10/12 00:38:45;;;;;;;14.70;5.45;;;10.10;99.90;;;;;;5006404;28;25080;-71
2022/10/12 00:41:11;;;;;;;14.18;5.18;;;10.10;99.90;;;;;;5018712;28;25172;-71
2022/10/12 00:43:40;;;;;;;10.38;4.95;;;10.10;99.90;;;;;;5025434;28;25051;-70
2022/10/12 00:46:15;;;;;;;17.55;5.75;;;10.20;99.90;;;;;;5023063;28;25104;-71
2022/10/12 00:48:41;;;;;;;16.15;5.32;;;10.20;99.90;;;;;;5022365;28;25079;-71
2022/10/12 00:51:08;;;;;;;12.00;5.15;;;10.00;99.90;;;;;;5023192;28;25157;-70
2022/10/12 00:53:40;;;;;;;10.82;4.85;;;9.90;99.90;;;;;;5017663;28;25102;-71
2022/10/12 00:56:11;;;;;;;15.45;5.75;;;9.90;99.90;;;;;;5022328;28;25152;-70
2022/10/12 00:58:37;;;;;;;15.35;4.97;;;9.90;99.90;;;;;;5026491;28;25113;-70
2022/10/12 01:01:04;;;;;;;16.58;6.20;;;10.00;99.90;;;;;;5020845;28;25140;-70
2022/10/12 01:03:31;;;;;;;21.15;5.20;;;9.90;99.90;;;;;;5014916;28;25139;-70
2022/10/12 01:05:57;;;;;;;18.27;5.80;;;9.90;99.90;;;;;;5025513;28;25065;-71
2022/10/12 01:08:23;;;;;;;13.20;5.07;;;9.80;99.90;;;;;;5024053;28;25073;-70
2022/10/12 01:10:48;;;;;;;21.35;5.75;;;9.80;99.90;;;;;;5030041;28;25167;-70
2022/10/12 01:13:14;;;;;;;10.52;5.05;;;9.80;99.90;;;;;;5024473;28;25113;-71
2022/10/12 01:15:48;;;;;;;14.30;5.97;;;9.80;99.90;;;;;;5027488;28;25095;-72
2022/10/12 01:18:33;;;;;;;14.43;4.88;;;9.80;99.90;;;;;;5029310;28;25064;-70
2022/10/12 01:21:09;;;;;;;16.95;5.68;;;9.90;99.90;;;;;;5030224;28;25066;-71
2022/10/12 01:23:46;;;;;;;8.13;4.70;;;9.80;99.90;;;;;;5029201;28;25076;-70
2022/10/12 01:26:36;;;;;;;12.73;5.43;;;9.70;99.90;;;;;;5030052;28;25088;-70
2022/10/12 01:29:30;;;;;;;14.73;5.55;;;9.60;99.90;;;;;;5022055;28;25067;-70
2022/10/12 01:32:05;;;;;;;18.95;4.82;;;9.60;99.90;;;;;;5022285;28;25096;-70
2022/10/12 01:34:57;;;;;;;12.93;4.80;;;9.80;99.90;;;;;;5028040;28;25141;-71
2022/10/12 01:37:29;;;;;;;12.73;4.90;;;9.80;99.90;;;;;;5026244;28;25168;-71
2022/10/12 01:39:59;;;;;;;11.52;4.70;;;9.80;99.90;;;;;;5014820;28;25090;-71
2022/10/12 01:42:31;;;;;;;13.80;5.03;;;9.70;99.90;;;;;;5026948;28;25081;-71
2022/10/12 01:45:13;;;;;;;12.77;6.03;;;9.70;99.90;;;;;;5021063;28;25090;-71
2022/10/12 01:47:40;;;;;;;8.50;4.75;;;9.60;99.90;;;;;;5027338;28;25102;-70
2022/10/12 01:50:11;;;;;;;12.73;4.88;;;9.50;99.90;;;;;;5027024;28;25072;-71
2022/10/12 01:53:11;;;;;;;14.55;5.32;;;9.50;99.90;;;;;;5028009;28;25063;-71
2022/10/12 01:55:48;;;;;;;10.10;5.72;;;9.50;99.90;;;;;;4999532;28;25104;-71
2022/10/12 01:58:16;;;;;;;15.68;5.85;;;9.50;99.90;;;;;;5026843;28;25048;-71
2022/10/12 02:01:18;;;;;;;12.32;5.28;;;9.40;99.90;;;;;;5027947;28;25066;-71
2022/10/12 02:03:53;;;;;;;13.20;5.10;;;9.40;99.90;;;;;;5010444;28;25135;-71
2022/10/12 02:06:21;;;;;;;12.18;4.80;;;9.40;99.90;;;;;;5027389;28;25117;-70
2022/10/12 02:08:51;;;;;;;14.25;4.53;;;9.40;99.90;;;;;;5026820;28;25121;-71
2022/10/12 02:11:19;;;;;;;18.55;5.45;;;9.40;99.90;;;;;;5025496;28;25058;-71
2022/10/12 02:14:10;;;;;;;15.18;5.53;;;9.50;99.90;;;;;;5020389;28;25056;-71
2022/10/12 02:16:47;;;;;;;14.25;5.55;;;9.40;99.90;;;;;;5026477;28;25050;-71
2022/10/12 02:19:18;;;;;;;14.70;5.55;;;9.20;99.90;;;;;;5026434;28;25156;-70
2022/10/12 02:21:45;;;;;;;12.40;4.82;;;9.20;99.90;;;;;;5031081;28;25062;-71
2022/10/12 02:24:13;;;;;;;16.15;5.68;;;9.30;99.90;;;;;;5026528;28;25053;-72
2022/10/12 02:26:42;;;;;;;11.98;4.95;;;9.50;99.90;;;;;;5030872;28;25053;-70
2022/10/12 02:29:13;;;;;;;13.07;5.20;;;9.50;99.90;;;;;;5022006;28;25063;-70
2022/10/12 02:32:12;;;;;;;11.05;5.30;;;9.50;99.90;;;;;;5024871;28;25074;-71
2022/10/12 02:34:46;;;;;;;15.57;5.22;;;9.30;99.90;;;;;;5025280;28;25064;-70
2022/10/12 02:37:39;;;;;;;10.15;4.70;;;9.30;99.90;;;;;;5027372;28;25058;-71
2022/10/12 02:40:21;;;;;;;16.55;5.15;;;9.40;99.90;;;;;;5024590;28;25114;-71
2022/10/12 02:43:00;;;;;;;10.50;4.75;;;9.40;99.90;;;;;;5027249;28;25066;-70
2022/10/12 02:45:27;;;;;;;14.30;5.68;;;9.30;99.90;;;;;;5033101;28;25063;-71
2022/10/12 02:47:54;;;;;;;13.02;5.13;;;9.30;99.90;;;;;;5024383;28;25057;-72
2022/10/12 02:50:22;;;;;;;11.75;4.95;;;9.30;99.90;;;;;;5026745;28;25053;-71
2022/10/12 02:52:49;;;;;;;13.73;5.07;;;9.30;99.90;;;;;;5027062;28;25091;-72
2022/10/12 02:55:15;;;;;;;8.75;3.95;;;9.30;99.90;;;;;;5026457;28;25185;-72
2022/10/12 02:57:40;;;;;;;8.75;4.50;;;9.30;99.90;;;;;;5027133;28;25147;-71
2022/10/12 03:00:06;;;;;;;11.90;4.47;;;9.40;99.90;;;;;;5025266;28;25061;-70
2022/10/12 03:02:32;;;;;;;12.23;5.30;;;9.40;99.90;;;;;;5026504;28;25072;-72
2022/10/12 03:04:57;;;;;;;15.52;5.32;;;9.40;99.90;;;;;;5023862;28;25086;-70
2022/10/12 03:07:23;;;;;;;10.25;4.10;;;9.40;99.90;;;;;;5028130;28;25124;-70
2022/10/12 03:09:48;;;;;;;13.50;4.95;;;9.30;99.90;;;;;;5025393;28;25060;-71
2022/10/12 03:12:14;;;;;;;14.07;4.50;;;9.30;99.90;;;;;;5009628;28;25113;-71
2022/10/12 03:14:40;;;;;;;12.70;4.65;;;9.30;99.90;;;;;;5028654;28;25062;-71
2022/10/12 03:17:05;;;;;;;8.35;4.40;;;9.40;99.90;;;;;;5032528;28;25074;-73
2022/10/12 03:19:31;;;;;;;11.05;5.00;;;9.30;99.90;;;;;;5039500;28;25087;-70
2022/10/12 03:21:56;;;;;;;12.95;4.47;;;9.40;99.90;;;;;;5028921;28;25091;-71
2022/10/12 03:24:22;;;;;;;8.50;4.63;;;9.40;99.90;;;;;;5028286;28;25099;-71
2022/10/12 03:26:47;;;;;;;13.18;4.88;;;9.40;99.90;;;;;;5023983;28;25181;-71
2022/10/12 03:29:13;;;;;;;11.45;5.43;;;9.50;99.90;;;;;;5026974;28;25057;-71
2022/10/12 03:31:39;;;;;;;16.63;4.78;;;9.50;99.90;;;;;;5026226;28;25064;-71
2022/10/12 03:34:04;;;;;;;7.28;3.78;;;9.50;99.90;;;;;;5025466;28;25115;-71
2022/10/12 03:36:30;;;;;;;13.75;4.90;;;9.50;99.90;;;;;;5019628;28;25127;-70
2022/10/12 03:38:55;;;;;;;11.15;4.70;;;9.50;99.90;;;;;;5008372;28;25142;-73
2022/10/12 03:41:21;;;;;;;12.38;5.43;;;9.40;99.90;;;;;;5015931;28;25101;-71
2022/10/12 03:43:46;;;;;;;12.45;5.22;;;9.50;99.90;;;;;;5022172;28;25110;-72
2022/10/12 03:46:13;;;;;;;16.58;5.78;;;9.40;99.90;;;;;;5016762;28;25074;-71
2022/10/12 03:48:38;;;;;;;17.33;5.50;;;9.40;99.90;;;;;;5014545;28;25075;-72
2022/10/12 03:51:04;;;;;;;11.35;5.97;;;9.50;99.90;;;;;;5013543;28;25132;-71
2022/10/12 03:53:30;;;;;;;17.67;5.70;;;9.70;99.90;;;;;;5013091;28;25063;-71
2022/10/12 03:55:56;;;;;;;11.48;5.40;;;9.60;99.90;;;;;;5016705;28;25088;-70
2022/10/12 03:58:21;;;;;;;13.15;6.00;;;9.60;99.90;;;;;;5014001;28;25066;-71
2022/10/12 04:00:50;;;;;;;12.55;6.18;;;9.60;99.90;;;;;;5017317;28;25065;-70
2022/10/12 04:03:16;;;;;;;19.17;6.82;;;9.60;99.90;;;;;;5021904;28;25065;-71
2022/10/12 04:05:41;;;;;;;17.27;6.20;;;9.50;99.90;;;;;;5015250;28;25062;-71
2022/10/12 04:08:07;;;;;;;21.17;6.35;;;9.50;99.90;;;;;;5011805;28;25059;-71
2022/10/12 04:10:33;;;;;;;13.88;6.47;;;9.40;99.90;;;;;;5014856;28;25061;-71
2022/10/12 04:12:58;;;;;;;13.50;6.20;;;9.40;99.90;;;;;;5004077;28;25067;-70
2022/10/12 04:15:24;;;;;;;14.93;7.07;;;9.60;99.90;;;;;;5011786;28;25057;-70
2022/10/12 04:17:49;;;;;;;16.25;6.50;;;9.70;99.90;;;;;;5013043;28;25123;-71
2022/10/12 04:20:15;;;;;;;12.30;6.18;;;9.70;99.90;;;;;;5012120;28;25078;-71
2022/10/12 04:22:41;;;;;;;16.52;6.72;;;9.60;99.90;;;;;;5015964;28;25076;-71
2022/10/12 04:25:07;;;;;;;12.07;6.57;;;9.50;99.90;;;;;;5010776;28;25082;-71
2022/10/12 04:27:32;;;;;;;9.82;6.05;;;9.50;99.90;;;;;;5023001;28;25054;-71
2022/10/12 04:29:58;;;;;;;15.95;6.53;;;9.50;99.90;;;;;;5013165;28;25056;-71
2022/10/12 04:32:23;;;;;;;13.55;6.18;;;9.40;99.90;;;;;;5018758;28;25159;-72
2022/10/12 04:34:49;;;;;;;12.85;6.05;;;9.40;99.90;;;;;;5014930;28;25137;-71
2022/10/12 04:37:14;;;;;;;13.50;6.38;;;9.30;99.90;;;;;;5012412;28;25058;-72
2022/10/12 04:39:40;;;;;;;13.82;6.32;;;9.20;99.90;;;;;;5016933;28;25123;-72
2022/10/12 04:42:06;;;;;;;14.25;6.93;;;9.10;99.90;;;;;;5015722;28;25066;-71
2022/10/12 04:44:32;;;;;;;12.13;6.47;;;9.20;99.90;;;;;;5016215;28;25200;-71
2022/10/12 04:46:57;;;;;;;13.57;6.20;;;9.30;99.90;;;;;;5018990;28;25151;-71
2022/10/12 04:49:23;;;;;;;19.20;6.43;;;9.30;99.90;;;;;;5018256;28;25073;-71
2022/10/12 04:51:48;;;;;;;12.27;6.53;;;9.20;99.90;;;;;;5023771;28;25072;-73
2022/10/12 04:54:14;;;;;;;15.45;6.85;;;9.10;99.90;;;;;;5021514;28;25071;-72
2022/10/12 04:56:39;;;;;;;17.13;6.90;;;9.20;99.90;;;;;;5025349;28;25100;-72
2022/10/12 04:59:05;;;;;;;11.68;6.50;;;9.10;99.90;;;;;;5029534;28;25104;-71
2022/10/12 05:01:30;;;;;;;22.75;6.90;;;9.20;99.90;;;;;;5019526;28;25079;-71
2022/10/12 05:03:56;;;;;;;21.90;6.85;;;9.30;99.90;;;;;;5026512;28;25150;-74
2022/10/12 05:06:21;;;;;;;12.77;6.18;;;9.40;99.90;;;;;;5022754;28;25080;-70
2022/10/12 05:08:47;;;;;;;23.88;7.20;;;9.30;99.90;;;;;;5010094;28;25070;-72
2022/10/12 05:11:12;;;;;;;15.90;6.53;;;9.20;99.90;;;;;;5028984;28;25063;-73
2022/10/12 05:13:38;;;;;;;14.93;7.25;;;9.20;99.90;;;;;;5024867;28;25151;-72
2022/10/12 05:16:04;;;;;;;17.73;7.60;;;9.30;99.90;;;;;;5029140;28;25126;-73
2022/10/12 05:18:29;;;;;;;16.17;7.00;;;9.40;99.90;;;;;;5017763;28;25138;-71
2022/10/12 05:20:55;;;;;;;14.80;7.10;;;9.50;99.90;;;;;;5017884;28;25094;-73
2022/10/12 05:23:20;;;;;;;14.63;6.20;;;9.60;99.90;;;;;;5022539;28;25092;-73
2022/10/12 05:25:46;;;;;;;16.27;7.78;;;9.60;99.90;;;;;;5003634;28;25046;-72
2022/10/12 05:28:11;;;;;;;16.58;7.90;;;9.60;99.90;;;;;;5017241;28;25089;-74
2022/10/12 05:30:37;;;;;;;20.85;7.72;;;9.50;99.90;;;;;;5018755;28;25068;-74
2022/10/12 05:33:03;;;;;;;14.70;7.75;;;9.60;99.90;;;;;;5012014;28;25063;-73
2022/10/12 05:35:28;;;;;;;17.20;7.90;;;9.50;99.90;;;;;;5012534;28;25061;-71
2022/10/12 05:37:54;;;;;;;13.80;7.28;;;9.50;99.90;;;;;;5015886;28;25147;-71
2022/10/12 05:40:20;;;;;;;14.80;7.47;;;9.50;99.90;;;;;;5014945;28;25138;-72
2022/10/12 05:42:45;;;;;;;12.23;7.15;;;9.50;99.90;;;;;;5018138;28;25095;-71
2022/10/12 05:45:11;;;;;;;18.55;7.47;;;9.70;99.90;;;;;;5026847;28;25076;-72
2022/10/12 05:47:37;;;;;;;19.75;7.15;;;9.80;99.90;;;;;;5009366;28;25060;-73
2022/10/12 05:50:03;;;;;;;20.65;8.38;;;9.70;99.90;;;;;;5023310;28;25070;-73
2022/10/12 05:52:28;;;;;;;11.77;6.90;;;9.60;99.90;;;;;;5022809;28;25064;-73
2022/10/12 05:54:54;;;;;;;12.13;7.45;;;9.50;99.90;;;;;;5019892;28;25076;-74
2022/10/12 05:57:19;;;;;;;19.60;7.90;;;9.40;99.90;;;;;;5026169;28;25061;-74
2022/10/12 05:59:45;;;;;;;18.30;7.13;;;9.40;99.90;;;;;;5023929;28;25051;-74
2022/10/12 06:02:15;;;;;;;14.65;6.88;;;9.40;99.90;;;;;;5022013;28;25092;-73
2022/10/12 06:04:41;;;;;;;12.95;7.55;;;9.50;99.90;;;;;;5025856;28;25172;-72
2022/10/12 06:07:07;;;;;;;12.48;7.45;;;9.40;99.90;;;;;;5023871;28;25095;-73
2022/10/12 06:09:34;;;;;;;13.23;7.43;;;9.40;99.90;;;;;;5020807;28;25138;-72
2022/10/12 06:11:59;;;;;;;15.48;7.60;;;9.30;99.90;;;;;;5027266;28;25075;-73
2022/10/12 06:14:25;;;;;;;13.25;6.35;;;9.30;99.90;;;;;;5026348;28;25067;-71
2022/10/12 06:16:50;;;;;;;20.80;7.97;;;9.20;99.90;;;;;;5024017;28;25065;-74
2022/10/12 06:19:16;;;;;;;19.92;7.80;;;9.30;99.90;;;;;;5021400;28;25055;-72
2022/10/12 06:21:41;;;;;;;22.65;7.22;;;9.20;99.90;;;;;;5015659;28;25098;-71
2022/10/12 06:24:07;;;;;;;19.02;8.50;;;9.10;99.90;;;;;;5023568;28;25053;-72
2022/10/12 06:26:32;;;;;;;15.90;7.28;;;9.20;99.90;;;;;;5016444;28;25051;-73
2022/10/12 06:28:59;;;;;;;17.73;7.82;;;9.30;99.90;;;;;;5019639;28;25098;-72
2022/10/12 06:31:25;;;;;;;17.42;7.90;;;9.40;99.90;;;;;;5025611;28;25144;-72
2022/10/12 06:33:52;;;;;;;15.43;7.47;;;9.40;99.90;;;;;;5019473;28;25051;-72
2022/10/12 06:36:18;;;;;;;20.45;8.55;;;9.40;99.90;;;;;;5020031;28;25046;-73
2022/10/12 06:38:43;;;;;;;19.60;8.20;;;9.40;99.90;;;;;;5017088;28;25044;-73
2022/10/12 06:41:09;;;;;;;16.65;7.70;;;9.40;99.90;;;;;;5032105;28;25067;-71
2022/10/12 06:43:34;;;;;;;13.82;8.05;;;9.20;99.90;;;;;;5028854;28;25056;-74
2022/10/12 06:46:00;;;;;;;16.42;8.05;;;9.20;99.90;;;;;;5033153;28;25164;-72
2022/10/12 06:48:26;;;;;;;16.67;7.78;;;9.30;99.90;;;;;;5024179;28;25125;-74
2022/10/12 06:50:51;;;;;;;27.80;8.60;;;9.40;99.90;;;;;;5003036;28;25104;-73
2022/10/12 06:53:18;;;;;;;15.35;8.25;;;9.40;99.90;;;;;;5025170;28;25079;-73
2022/10/12 06:55:43;;;;;;;15.95;7.82;;;9.50;99.90;;;;;;5000837;28;25057;-72
2022/10/12 06:58:09;;;;;;;13.18;7.60;;;9.50;99.90;;;;;;5016396;28;25071;-73
2022/10/12 07:00:35;;;;;;;19.25;8.63;;;9.60;99.90;;;;;;5022423;28;25094;-72
2022/10/12 07:03:00;;;;;;;25.45;8.52;;;9.60;99.90;;;;;;5016474;28;25064;-70
2022/10/12 07:05:26;;;;;;;13.10;7.60;;;9.60;99.90;;;;;;5024333;28;25106;-72
2022/10/12 07:07:52;;;;;;;17.40;7.88;;;9.60;99.90;;;;;;5008422;28;25063;-73
2022/10/12 07:10:18;;;;;;;21.02;9.98;;;9.70;99.90;;;;;;5018239;28;25067;-71
2022/10/12 07:12:43;;;;;;;16.08;8.93;;;9.80;99.90;;;;;;5012925;28;25075;-72
2022/10/12 07:15:09;;;;;;;29.73;10.10;;;9.70;99.90;;;;;;5016371;28;25108;-72
2022/10/12 07:17:35;;;;;;;34.92;10.38;;;9.70;99.90;;;;;;5022573;28;25062;-72
2022/10/12 07:20:01;;;;;;;35.95;9.55;;;9.90;99.90;;;;;;5021945;28;25045;-73
2022/10/12 07:22:27;;;;;;;27.25;11.38;;;9.80;99.90;;;;;;5017699;28;25094;-74
2022/10/12 07:24:52;;;;;;;23.00;10.02;;;9.80;99.90;;;;;;5018518;28;25093;-72
2022/10/12 07:27:18;;;;;;;32.55;10.32;;;9.80;99.90;;;;;;5018123;28;25106;-72
2022/10/12 07:29:43;;;;;;;24.10;10.35;;;9.90;99.90;;;;;;5024101;28;25097;-73
2022/10/12 07:32:09;;;;;;;21.98;10.32;;;9.80;99.90;;;;;;5025713;28;25174;-71
2022/10/12 07:34:34;;;;;;;27.35;10.20;;;9.90;99.90;;;;;;5023670;28;25061;-72
2022/10/12 07:37:00;;;;;;;25.25;11.98;;;10.00;99.90;;;;;;5027061;28;25084;-72
2022/10/12 07:39:26;;;;;;;20.73;9.30;;;10.00;99.90;;;;;;5017078;28;25056;-73
2022/10/12 07:41:52;;;;;;;34.10;10.10;;;10.00;99.90;;;;;;5019980;28;25054;-73
2022/10/12 07:44:18;;;;;;;25.35;12.13;;;10.10;99.90;;;;;;5016069;28;25102;-71
2022/10/12 07:46:44;;;;;;;18.10;9.27;;;10.10;99.90;;;;;;5023175;28;25065;-74
2022/10/12 07:49:14;;;;;;;21.85;10.05;;;10.10;99.90;;;;;;5023975;28;25077;-74
2022/10/12 07:51:40;;;;;;;26.95;10.75;;;10.20;99.90;;;;;;5022020;28;25089;-71
2022/10/12 07:54:06;;;;;;;25.67;11.32;;;10.20;99.90;;;;;;5017820;28;25100;-72
2022/10/12 07:56:32;;;;;;;17.67;9.52;;;10.20;99.90;;;;;;4999934;28;25068;-73
2022/10/12 07:58:58;;;;;;;20.50;9.18;;;10.40;99.90;;;;;;5022961;28;25067;-73
2022/10/12 08:01:26;;;;;;;13.85;8.93;;;10.50;99.90;;;;;;5013017;28;25126;-73
2022/10/12 08:03:53;;;;;;;20.98;10.73;;;10.70;99.90;;;;;;5016644;28;25073;-73
2022/10/12 08:06:21;;;;;;;27.80;10.73;;;10.90;99.90;;;;;;5017843;28;25073;-73
2022/10/12 08:08:47;;;;;;;19.80;9.52;;;11.10;99.90;;;;;;5009975;28;25057;-72
2022/10/12 08:11:13;;;;;;;20.83;10.70;;;11.40;99.90;;;;;;5015951;28;25080;-74
2022/10/12 08:13:39;;;;;;;22.23;10.30;;;11.50;99.90;;;;;;5019379;28;25050;-72
2022/10/12 08:16:09;;;;;;;23.40;11.52;;;11.80;99.90;;;;;;5013576;28;25095;-71
2022/10/12 08:18:35;;;;;;;22.70;11.07;;;12.10;99.90;;;;;;5012027;28;25112;-73
2022/10/12 08:21:03;;;;;;;22.02;10.73;;;12.20;99.90;;;;;;5012927;28;25107;-72
2022/10/12 08:23:29;;;;;;;21.85;11.18;;;12.50;99.90;;;;;;5010700;28;25104;-71
2022/10/12 08:25:56;;;;;;;26.85;11.35;;;12.60;99.90;;;;;;5011444;28;25099;-74
2022/10/12 08:28:23;;;;;;;27.63;10.25;;;12.70;99.90;;;;;;5011148;28;25098;-72
2022/10/12 08:30:49;;;;;;;26.35;10.02;;;12.40;99.90;;;;;;5012968;28;25068;-70
2022/10/12 08:33:16;;;;;;;23.33;10.55;;;12.30;99.90;;;;;;4991688;28;25052;-72
2022/10/12 08:35:42;;;;;;;22.65;10.82;;;12.50;99.90;;;;;;5012313;28;25072;-73
2022/10/12 08:38:10;;;;;;;24.50;10.98;;;12.50;99.90;;;;;;5012680;28;25106;-72
2022/10/12 08:40:56;;;;;;;21.35;9.65;;;12.80;99.90;;;;;;5016154;28;25082;-73
2022/10/12 08:43:24;;;;;;;24.63;11.07;;;12.80;99.90;;;;;;5020188;28;25068;-73
2022/10/12 08:45:51;;;;;;;25.90;10.90;;;12.70;99.90;;;;;;5021938;28;25079;-73
2022/10/12 08:48:48;;;;;;;23.20;10.40;;;12.80;99.90;;;;;;5018543;28;25080;-72
2022/10/12 08:51:18;;;;;;;19.73;10.43;;;12.80;99.90;;;;;;5005567;28;25061;-72
2022/10/12 08:54:05;;;;;;;17.33;10.32;;;12.60;99.90;;;;;;5026619;28;25145;-73
2022/10/12 08:56:33;;;;;;;24.90;10.73;;;12.70;99.90;;;;;;5024384;28;25076;-72
2022/10/12 08:59:01;;;;;;;25.63;10.73;;;12.50;99.90;;;;;;5024650;28;25064;-71
2022/10/12 09:01:36;;;;;;;28.02;11.32;;;12.60;99.90;;;;;;5021718;28;25111;-73
2022/10/12 09:04:38;;;;;;;29.48;11.65;;;12.50;99.90;;;;;;5019508;28;25079;-72
2022/10/12 09:07:19;;;;;;;31.10;11.88;;;12.50;99.90;;;;;;5023845;28;25054;-71
2022/10/12 09:10:07;;;;;;;22.42;8.98;;;12.50;99.90;;;;;;5024611;28;25066;-72
2022/10/12 09:12:45;;;;;;;21.25;9.50;;;12.30;99.90;;;;;;5024471;28;25098;-72
2022/10/12 09:15:18;;;;;;;19.08;9.32;;;12.20;99.90;;;;;;5016903;28;25073;-72
2022/10/12 09:17:56;;;;;;;22.90;9.38;;;12.30;99.90;;;;;;5005358;28;25143;-72
2022/10/12 09:20:30;;;;;;;20.83;8.80;;;12.20;99.90;;;;;;5019521;28;25076;-72
2022/10/12 09:23:03;;;;;;;17.83;8.90;;;12.40;99.90;;;;;;5021425;28;25071;-71
2022/10/12 09:25:29;;;;;;;23.35;8.35;;;12.60;99.90;;;;;;5005075;28;25070;-71
2022/10/12 09:28:13;;;;;;;20.02;7.82;;;12.80;99.90;;;;;;5019311;28;25064;-74
2022/10/12 09:30:44;;;;;;;19.95;6.38;;;12.90;99.90;;;;;;5022981;28;25139;-72
2022/10/12 09:33:21;;;;;;;16.30;6.57;;;12.90;99.90;;;;;;5021932;28;25117;-72
2022/10/12 09:35:49;;;;;;;14.38;6.38;;;12.90;99.90;;;;;;5019224;28;25151;-71
2022/10/12 09:38:15;;;;;;;21.33;7.72;;;12.70;99.90;;;;;;5025208;28;25060;-71
2022/10/12 09:40:41;;;;;;;23.88;8.38;;;12.60;99.90;;;;;;5031614;28;25073;-73
2022/10/12 09:43:07;;;;;;;17.33;7.85;;;13.00;99.90;;;;;;5032497;28;25066;-72
2022/10/12 09:45:34;;;;;;;23.20;7.57;;;13.30;99.90;;;;;;5027044;28;25051;-71
2022/10/12 09:48:21;;;;;;;22.08;7.75;;;13.50;99.90;;;;;;5027264;28;25054;-72
2022/10/12 09:50:56;;;;;;;19.65;6.82;;;13.70;99.90;;;;;;5018403;28;25059;-72
2022/10/12 09:53:46;;;;;;;20.05;7.30;;;13.60;99.90;;;;;;5030063;28;25132;-72
2022/10/12 09:56:23;;;;;;;14.85;7.78;;;13.40;99.90;;;;;;5024174;28;25056;-73
2022/10/12 09:59:01;;;;;;;23.65;8.50;;;13.20;99.90;;;;;;5021573;28;25189;-71
2022/10/12 10:01:29;;;;;;;14.85;7.60;;;13.20;99.90;;;;;;5023882;28;25063;-71
2022/10/12 10:04:21;;;;;;;13.25;8.20;;;13.50;99.90;;;;;;5022887;28;25051;-72
2022/10/12 10:06:47;;;;;;;16.63;8.20;;;13.50;99.90;;;;;;5024321;28;25071;-71
2022/10/12 10:09:33;;;;;;;22.58;7.78;;;13.40;99.90;;;;;;5023572;28;25071;-71
2022/10/12 10:12:21;;;;;;;22.58;8.93;;;13.40;99.90;;;;;;5026027;28;25064;-73
2022/10/12 10:14:48;;;;;;;25.48;9.02;;;13.50;99.90;;;;;;5039353;28;25063;-73
2022/10/12 10:17:27;;;;;;;22.52;8.20;;;13.40;99.90;;;;;;5028046;28;25061;-72
2022/10/12 10:19:54;;;;;;;21.30;8.23;;;13.20;99.90;;;;;;5023387;28;25062;-72
2022/10/12 10:22:21;;;;;;;23.55;8.27;;;13.20;99.90;;;;;;5024094;28;25069;-71
2022/10/12 10:24:53;;;;;;;20.25;9.27;;;13.30;99.90;;;;;;5026681;28;25165;-73
2022/10/12 10:27:37;;;;;;;20.50;9.35;;;13.50;99.90;;;;;;5027563;28;25089;-73
2022/10/12 10:30:14;;;;;;;25.63;10.57;;;13.50;99.90;;;;;;5027220;28;25061;-72
2022/10/12 10:32:41;;;;;;;31.48;12.27;;;13.40;99.90;;;;;;5028327;28;25061;-72
2022/10/12 10:35:12;;;;;;;31.70;13.30;;;13.50;99.90;;;;;;5024930;28;25074;-71
2022/10/12 10:37:44;;;;;;;24.00;10.87;;;13.60;99.90;;;;;;5026869;28;25073;-71
2022/10/12 10:40:31;;;;;;;23.73;11.15;;;13.70;99.90;;;;;;5025194;28;25098;-72
2022/10/12 10:43:16;;;;;;;22.10;10.60;;;13.90;99.90;;;;;;5020212;28;25084;-73
2022/10/12 10:45:49;;;;;;;18.67;9.38;;;14.00;99.90;;;;;;5023999;28;25086;-71
2022/10/12 10:48:21;;;;;;;27.33;11.98;;;13.90;99.90;;;;;;5025239;28;25070;-71
2022/10/12 10:50:59;;;;;;;23.38;11.13;;;14.10;99.90;;;;;;5026158;28;25046;-72
2022/10/12 10:53:28;;;;;;;24.38;12.77;;;14.30;99.90;;;;;;5025420;28;25107;-71
2022/10/12 10:56:19;;;;;;;24.55;11.32;;;14.20;99.90;;;;;;5025955;28;25064;-71
2022/10/12 10:58:56;;;;;;;27.45;11.15;;;14.40;99.90;;;;;;5024507;28;25146;-71
2022/10/12 11:01:56;;;;;;;22.05;10.50;;;14.50;99.90;;;;;;5017776;28;25085;-73
2022/10/12 11:04:29;;;;;;;30.13;11.95;;;14.50;99.90;;;;;;5023175;28;25058;-72
2022/10/12 11:07:09;;;;;;;27.27;11.13;;;14.80;99.90;;;;;;5036345;28;25062;-72
2022/10/12 11:09:41;;;;;;;28.48;11.18;;;14.90;99.90;;;;;;5030021;28;25101;-72
2022/10/12 11:12:20;;;;;;;32.30;12.45;;;15.00;99.90;;;;;;5025500;28;25098;-71
2022/10/12 11:14:50;;;;;;;28.50;11.70;;;15.00;99.90;;;;;;4998155;28;25076;-74
2022/10/12 11:17:22;;;;;;;26.92;12.85;;;15.00;99.90;;;;;;5007119;28;25080;-71
2022/10/12 11:19:50;;;;;;;28.95;12.52;;;15.10;99.90;;;;;;5024992;28;25096;-72
2022/10/12 11:22:24;;;;;;;36.08;15.18;;;15.10;99.90;;;;;;5021995;28;25178;-72
2022/10/12 11:25:18;;;;;;;27.88;11.95;;;15.10;99.90;;;;;;5016514;28;25069;-71
2022/10/12 11:27:44;;;;;;;28.45;14.32;;;15.10;99.90;;;;;;5023311;28;25145;-72
2022/10/12 11:30:16;;;;;;;28.17;12.95;;;15.00;99.90;;;;;;5024413;28;25075;-72
2022/10/12 11:32:47;;;;;;;23.60;11.15;;;15.00;99.90;;;;;;5024901;28;25131;-72
2022/10/12 11:35:33;;;;;;;24.55;10.40;;;14.90;99.90;;;;;;5022709;28;25078;-71
2022/10/12 11:38:07;;;;;;;21.45;9.73;;;14.70;99.90;;;;;;5020195;28;25073;-71
2022/10/12 11:41:16;;;;;;;25.85;11.07;;;14.80;99.90;;;;;;5025156;28;25129;-71
2022/10/12 11:43:56;;;;;;;27.58;10.88;;;14.90;99.90;;;;;;5004750;28;25084;-71
2022/10/12 11:46:34;;;;;;;20.45;10.25;;;14.90;99.90;;;;;;5017373;28;25065;-72
2022/10/12 11:49:26;;;;;;;26.63;10.48;;;14.70;99.90;;;;;;5016599;28;25060;-73
2022/10/12 11:51:55;;;;;;;24.83;9.38;;;14.90;99.90;;;;;;5016252;28;25103;-72
2022/10/12 11:54:43;;;;;;;17.98;9.70;;;15.30;99.90;;;;;;5002671;28;25060;-73
2022/10/12 11:57:16;;;;;;;26.88;9.93;;;15.80;99.90;;;;;;5019178;28;25142;-74
2022/10/12 11:59:54;;;;;;;23.58;9.40;;;16.20;99.90;;;;;;5024155;28;25060;-72
2022/10/12 12:02:39;;;;;;;18.67;7.85;;;16.30;99.90;;;;;;5024118;28;25145;-73
2022/10/12 12:05:14;;;;;;;19.00;8.60;;;16.30;99.90;;;;;;5014470;28;25160;-72
2022/10/12 12:07:48;;;;;;;19.10;8.35;;;16.20;99.90;;;;;;5015698;28;25091;-72
2022/10/12 12:10:26;;;;;;;18.73;8.07;;;16.30;99.90;;;;;;5013028;28;25164;-72
2022/10/12 12:13:11;;;;;;;19.33;8.57;;;16.30;99.90;;;;;;5018606;28;25050;-74
2022/10/12 12:15:50;;;;;;;25.38;7.97;;;16.30;99.90;;;;;;5003161;28;25093;-73
2022/10/12 12:18:25;;;;;;;22.55;8.90;;;16.00;99.90;;;;;;5018261;28;25072;-70
2022/10/12 12:21:06;;;;;;;19.92;9.23;;;15.90;99.90;;;;;;5018875;28;25106;-72
2022/10/12 12:23:40;;;;;;;19.77;8.75;;;15.90;99.90;;;;;;5017771;28;25071;-73
2022/10/12 12:26:08;;;;;;;17.15;7.57;;;15.70;99.90;;;;;;5021937;28;25152;-73
2022/10/12 12:28:36;;;;;;;21.45;8.60;;;15.80;99.90;;;;;;5018347;28;25052;-72
2022/10/12 12:31:08;;;;;;;19.75;7.78;;;15.80;99.90;;;;;;5013295;28;25055;-72
2022/10/12 12:33:40;;;;;;;20.98;7.88;;;15.70;99.90;;;;;;5021360;28;25081;-75
2022/10/12 12:36:09;;;;;;;12.52;5.30;;;15.50;99.90;;;;;;5014375;28;25165;-71
2022/10/12 12:38:37;;;;;;;21.80;6.72;;;15.50;99.90;;;;;;5021615;28;25076;-71
2022/10/12 12:41:12;;;;;;;16.55;5.95;;;15.50;99.90;;;;;;5022227;28;25079;-73
2022/10/12 12:43:55;;;;;;;14.15;5.68;;;15.20;99.90;;;;;;5024483;28;25066;-73
2022/10/12 12:46:22;;;;;;;15.77;6.00;;;15.20;99.90;;;;;;5006502;28;25083;-72
2022/10/12 12:48:47;;;;;;;14.07;5.80;;;15.00;99.90;;;;;;5024102;28;25059;-73
2022/10/12 12:51:17;;;;;;;12.88;5.65;;;15.10;99.90;;;;;;5023773;28;25059;-73
2022/10/12 12:53:50;;;;;;;15.60;5.95;;;15.10;99.90;;;;;;5017827;28;25081;-74
2022/10/12 12:56:35;;;;;;;16.00;5.95;;;15.20;99.90;;;;;;5006617;28;25040;-73
2022/10/12 12:59:46;;;;;;;17.30;5.38;;;15.20;99.90;;;;;;5024579;28;25088;-73